KFGX

Fleming-Mason Airport

Flemingsburg, Kentucky, USA
METAR KFGX 240155Z AUTO 00000KT 10SM CLR 20/15 A3016 RMK AO2 T02000146
Observed Flight Rules
May-24 @ 01:55 UTC (13 minutes ago) Visual Flight Rules
Visibility Clouds
10 miles
  • Clear skies
Temperatures Readings
Current 20°C / 68°F
Dewpoint 15°C / 59°F
Humidity 73%
Altimeter 30.16" Hg
Pressure 1021 hPa
Elevation 278
METAR KFGX 240155Z AUTO 00000KT 10SM CLR 20/15 A3016 RMK AO2 T02000146
Observed Flight Rules
May-24 @ 01:55 UTC
(13 minutes ago)
VFR
Clouds
  • Clear skies
Temperature Dewpoint
20°C / 68°F 15°C / 59°F
Humidity Altimeter Pressure
73% 30.16" Hg 1021 hPa